Time;durP1;ratioP1;P1;durP2;ratioP2;P2;SDS_P1;SDS_P2;PMS_P1;PMS_P2;Temp;Humidity;BMP_temperature;BMP_pressure;BME280_temperature;BME280_humidity;BME280_pressure;Samples;Min_cycle;Max_cycle;Signal;HPM_P1;HPM_P2
2022/01/20 00:01:41;;;;;;;7.57;5.80;;;4.80;30.20;;;;;;6283162;28;20233;-56
2022/01/20 00:04:47;;;;;;;11.03;5.73;;;4.50;29.80;;;;;;6286125;28;20264;-58
2022/01/20 00:08:04;;;;;;;12.93;6.00;;;4.70;29.50;;;;;;6285508;28;20959;-57
2022/01/20 00:27:53;;;;;;;13.67;5.30;;;4.60;26.10;;;;;;6289234;28;20598;-55
2022/01/20 00:31:04;;;;;;;8.50;5.60;;;4.20;25.50;;;;;;6284700;28;20480;-56
2022/01/20 00:34:17;;;;;;;9.60;5.80;;;4.40;26.80;;;;;;6285411;28;20234;-55
2022/01/20 00:37:21;;;;;;;10.43;5.40;;;4.70;28.20;;;;;;6298556;28;20229;-56
2022/01/20 00:40:24;;;;;;;14.83;5.97;;;4.60;29.70;;;;;;6279739;28;20753;-57
2022/01/20 00:43:27;;;;;;;11.47;6.33;;;4.70;32.10;;;;;;6283949;28;20279;-57
2022/01/20 00:46:30;;;;;;;13.53;6.33;;;4.60;32.70;;;;;;6282489;28;20809;-55
2022/01/20 00:49:33;;;;;;;13.33;6.43;;;4.80;34.70;;;;;;6283693;28;20233;-56
2022/01/20 00:52:38;;;;;;;11.87;6.67;;;4.70;35.10;;;;;;6290920;28;20234;-56
2022/01/20 00:55:41;;;;;;;16.40;6.60;;;4.60;34.80;;;;;;6284950;28;20732;-56
2022/01/20 00:58:43;;;;;;;18.07;6.23;;;4.70;34.00;;;;;;6278331;28;20405;-64
2022/01/20 01:01:46;;;;;;;17.60;6.07;;;4.70;32.90;;;;;;6290386;28;20230;-55
2022/01/20 01:04:51;;;;;;;12.30;5.73;;;4.80;32.30;;;;;;6282234;28;20245;-56
2022/01/20 01:07:56;;;;;;;18.70;6.57;;;4.60;31.80;;;;;;6282830;28;20348;-56
2022/01/20 01:10:59;;;;;;;14.53;5.53;;;4.80;30.20;;;;;;6285193;28;20225;-58
2022/01/20 01:14:03;;;;;;;13.57;5.23;;;4.70;26.80;;;;;;6291847;28;20241;-59
2022/01/20 01:20:28;;;;;;;11.97;5.73;;;4.60;24.50;;;;;;6279376;28;20727;-57
2022/01/20 01:23:36;;;;;;;14.13;5.60;;;4.60;25.20;;;;;;6285367;28;20241;-58
2022/01/20 01:26:39;;;;;;;12.30;5.43;;;4.60;25.70;;;;;;6282097;28;20332;-57
2022/01/20 01:30:00;;;;;;;18.30;6.07;;;4.50;25.30;;;;;;6276219;28;20316;-58
2022/01/20 01:33:06;;;;;;;11.63;5.20;;;4.10;26.10;;;;;;6284013;28;20270;-56
2022/01/20 01:36:12;;;;;;;20.63;6.90;;;4.40;26.60;;;;;;6289348;28;20282;-57
2022/01/20 01:39:17;;;;;;;9.93;5.63;;;4.40;26.30;;;;;;6277249;28;20320;-56
2022/01/20 01:42:26;;;;;;;14.83;5.20;;;4.20;26.40;;;;;;6284055;28;20282;-57
2022/01/20 01:45:30;;;;;;;26.47;6.83;;;4.00;26.10;;;;;;6282882;28;20265;-58
2022/01/20 01:48:34;;;;;;;21.40;6.40;;;4.00;26.00;;;;;;6283280;28;20366;-56
2022/01/20 01:51:37;;;;;;;16.37;5.60;;;4.20;26.30;;;;;;6282856;28;20315;-57
2022/01/20 01:54:41;;;;;;;18.93;6.33;;;3.90;26.20;;;;;;6282975;28;20255;-56
2022/01/20 01:57:44;;;;;;;16.73;6.27;;;4.40;26.30;;;;;;6276654;28;20284;-56
2022/01/20 02:00:47;;;;;;;12.70;6.10;;;4.20;25.00;;;;;;6290071;28;20723;-57
2022/01/20 02:03:58;;;;;;;14.40;5.47;;;3.90;24.40;;;;;;6278394;28;20239;-57
2022/01/20 02:07:28;;;;;;;20.23;6.10;;;3.90;25.50;;;;;;6280378;28;20977;-56
2022/01/20 02:20:31;;;;;;;11.80;5.10;;;3.70;22.30;;;;;;6283287;28;20257;-58
2022/01/20 02:23:34;;;;;;;17.87;6.37;;;3.80;20.30;;;;;;6296813;28;20314;-57
2022/01/20 02:26:37;;;;;;;12.37;5.80;;;3.70;18.00;;;;;;6282396;28;20233;-57
2022/01/20 02:29:40;;;;;;;14.40;5.07;;;4.00;16.50;;;;;;6284104;28;20644;-56
2022/01/20 02:32:51;;;;;;;13.57;5.57;;;3.90;17.60;;;;;;6295096;28;20856;-56
2022/01/20 02:36:02;;;;;;;10.40;5.60;;;3.50;17.90;;;;;;6283415;28;20425;-56
2022/01/20 02:39:11;;;;;;;14.27;5.90;;;3.50;16.30;;;;;;6285082;28;20238;-56
2022/01/20 02:45:36;;;;;;;12.00;4.90;;;3.50;14.70;;;;;;6276492;28;20328;-58
2022/01/20 02:48:39;;;;;;;18.23;5.57;;;3.70;15.70;;;;;;6274805;28;20617;-57
2022/01/20 02:51:48;;;;;;;12.83;5.03;;;3.40;13.90;;;;;;6288973;28;20289;-56
2022/01/20 02:54:54;;;;;;;13.70;5.27;;;3.60;14.50;;;;;;6281918;28;20232;-56
2022/01/20 02:57:56;;;;;;;10.80;5.23;;;3.50;14.20;;;;;;6279392;28;20237;-57
2022/01/20 03:00:59;;;;;;;10.00;5.37;;;3.60;12.50;;;;;;6289665;28;20237;-57
2022/01/20 03:04:03;;;;;;;9.27;4.67;;;3.60;11.80;;;;;;6281037;28;20709;-57
2022/01/20 03:07:07;;;;;;;15.77;5.20;;;3.50;10.90;;;;;;6281178;28;20279;-57
2022/01/20 03:10:10;;;;;;;11.30;4.57;;;3.50;10.90;;;;;;6276228;28;21015;-56
2022/01/20 03:13:13;;;;;;;10.07;5.07;;;3.30;10.60;;;;;;6289595;28;20745;-58
2022/01/20 03:16:15;;;;;;;15.33;5.07;;;3.60;12.60;;;;;;6291472;28;20269;-59
2022/01/20 03:19:19;;;;;;;11.73;4.90;;;3.60;13.10;;;;;;6280730;28;20237;-57
2022/01/20 03:22:23;;;;;;;12.90;4.80;;;3.60;13.10;;;;;;6283267;28;20324;-56
2022/01/20 03:25:25;;;;;;;14.50;5.50;;;3.20;14.40;;;;;;6288830;28;20797;-58
2022/01/20 03:28:28;;;;;;;8.97;4.93;;;3.50;16.30;;;;;;6278235;28;20237;-57
2022/01/20 03:31:31;;;;;;;10.43;4.53;;;3.10;16.90;;;;;;6282527;28;20627;-57
2022/01/20 03:34:34;;;;;;;7.17;4.50;;;3.50;18.40;;;;;;6282726;28;20233;-57
2022/01/20 03:37:39;;;;;;;10.13;4.77;;;3.30;19.50;;;;;;6277265;28;20696;-56
2022/01/20 03:40:42;;;;;;;8.37;4.73;;;3.10;21.50;;;;;;6283038;28;20325;-57
2022/01/20 03:43:45;;;;;;;12.90;4.70;;;3.40;22.90;;;;;;6287469;28;20233;-57
2022/01/20 03:46:49;;;;;;;14.67;5.03;;;3.10;23.70;;;;;;6290835;28;20241;-56
2022/01/20 03:50:05;;;;;;;11.67;5.23;;;3.00;23.00;;;;;;6286803;28;20257;-56
2022/01/20 03:53:09;;;;;;;17.53;5.17;;;3.30;25.00;;;;;;6286592;28;20701;-58
2022/01/20 03:56:12;;;;;;;13.13;5.53;;;3.40;21.60;;;;;;6277646;28;20226;-58
2022/01/20 03:59:14;;;;;;;9.67;4.97;;;3.40;21.60;;;;;;6280496;28;20283;-56
2022/01/20 04:02:17;;;;;;;16.83;6.33;;;3.30;20.70;;;;;;6293351;28;20240;-57
2022/01/20 04:05:20;;;;;;;12.30;5.30;;;3.20;20.70;;;;;;6286497;28;20693;-57
2022/01/20 04:08:26;;;;;;;18.70;5.40;;;3.30;19.20;;;;;;6293185;28;20513;-58
2022/01/20 04:11:29;;;;;;;15.20;6.17;;;3.20;19.70;;;;;;6292643;28;20328;-56
2022/01/20 04:14:34;;;;;;;24.57;6.97;;;3.60;19.10;;;;;;6283784;28;20324;-57
2022/01/20 04:17:41;;;;;;;11.40;5.50;;;3.20;19.70;;;;;;6285242;28;20516;-57
2022/01/20 04:20:43;;;;;;;17.57;6.00;;;3.40;20.40;;;;;;6285985;28;20946;-57
2022/01/20 04:23:47;;;;;;;14.83;5.47;;;3.50;19.50;;;;;;6284328;28;20301;-58
2022/01/20 04:26:50;;;;;;;16.23;5.33;;;3.50;18.70;;;;;;6274994;28;20252;-58
2022/01/20 04:29:53;;;;;;;14.60;5.70;;;3.70;22.00;;;;;;6291595;28;20322;-57
2022/01/20 04:32:56;;;;;;;10.03;4.30;;;3.50;28.60;;;;;;6273408;28;20378;-56
2022/01/20 04:35:59;;;;;;;10.23;4.67;;;3.20;25.10;;;;;;6284181;28;20270;-54
2022/01/20 04:39:06;;;;;;;7.17;3.60;;;2.60;27.50;;;;;;6284704;28;20634;-56
2022/01/20 04:42:10;;;;;;;8.27;4.10;;;2.50;26.80;;;;;;6283008;28;20593;-56
2022/01/20 04:45:18;;;;;;;8.30;4.20;;;2.20;28.50;;;;;;6276867;28;20366;-56
2022/01/20 04:48:29;;;;;;;10.00;4.33;;;1.90;30.50;;;;;;6285610;28;20252;-56
2022/01/20 04:58:15;;;;;;;8.93;3.93;;;1.70;34.00;;;;;;6280886;28;20295;-55
2022/01/20 05:01:18;;;;;;;7.57;3.83;;;1.70;33.80;;;;;;6291303;28;20320;-57
2022/01/20 05:04:23;;;;;;;6.07;4.33;;;1.50;31.90;;;;;;6281764;28;20233;-57
2022/01/20 05:07:28;;;;;;;7.90;4.53;;;1.50;30.00;;;;;;6280311;28;20760;-57
2022/01/20 05:10:34;;;;;;;7.13;4.63;;;1.60;29.20;;;;;;6277437;28;20248;-56
2022/01/20 05:13:40;;;;;;;5.17;3.80;;;1.80;29.00;;;;;;6279595;28;20288;-57
2022/01/20 05:16:43;;;;;;;5.83;4.23;;;1.60;28.20;;;;;;6282733;28;20515;-56
2022/01/20 05:19:46;;;;;;;7.17;4.03;;;1.90;28.00;;;;;;6283006;28;20291;-57
2022/01/20 05:22:48;;;;;;;5.63;4.30;;;1.70;27.00;;;;;;6292044;28;20237;-56
2022/01/20 05:25:53;;;;;;;5.83;3.50;;;1.90;26.20;;;;;;6285014;28;20322;-56
2022/01/20 05:28:56;;;;;;;6.53;4.33;;;1.80;24.30;;;;;;6278153;28;20458;-56
2022/01/20 05:31:58;;;;;;;9.17;5.10;;;1.90;24.70;;;;;;6279725;28;20237;-56
2022/01/20 05:35:01;;;;;;;8.40;3.90;;;1.90;25.10;;;;;;6283245;28;20680;-56
2022/01/20 05:38:05;;;;;;;6.73;4.60;;;2.00;24.80;;;;;;6283050;28;20410;-57
2022/01/20 05:41:09;;;;;;;12.70;4.47;;;2.10;24.80;;;;;;6283599;28;20320;-57
2022/01/20 05:44:12;;;;;;;14.43;4.63;;;1.80;23.90;;;;;;6282132;28;20244;-56
2022/01/20 05:47:18;;;;;;;8.53;4.40;;;2.20;24.80;;;;;;6282869;28;20241;-57
2022/01/20 05:50:21;;;;;;;11.20;4.50;;;1.90;23.30;;;;;;6288105;28;20237;-53
2022/01/20 05:53:23;;;;;;;5.80;4.30;;;1.90;22.80;;;;;;6282045;28;20252;-56
2022/01/20 05:56:27;;;;;;;7.30;4.00;;;2.00;21.00;;;;;;6282845;28;20317;-56
2022/01/20 05:59:30;;;;;;;9.33;4.77;;;2.00;19.20;;;;;;6282258;28;20320;-56
2022/01/20 06:02:36;;;;;;;9.23;4.37;;;2.10;19.40;;;;;;6288394;28;20359;-58
2022/01/20 06:05:39;;;;;;;5.70;4.37;;;2.20;16.20;;;;;;6282730;28;20236;-56
2022/01/20 06:08:43;;;;;;;4.70;4.07;;;2.50;14.40;;;;;;6274129;28;20261;-56
2022/01/20 06:11:47;;;;;;;10.63;4.50;;;2.40;12.20;;;;;;6264470;28;20348;-56
2022/01/20 06:14:50;;;;;;;5.60;4.40;;;2.40;11.10;;;;;;6262411;28;20229;-57
2022/01/20 06:17:52;;;;;;;8.93;4.40;;;2.20;6.00;;;;;;6264010;28;20406;-57
2022/01/20 06:20:56;;;;;;;6.07;4.33;;;2.60;5.80;;;;;;6270693;28;20316;-56
2022/01/20 06:23:59;;;;;;;6.50;3.83;;;2.70;2.70;;;;;;6282725;28;20625;-57
2022/01/20 06:27:04;;;;;;;5.93;4.10;;;2.60;2.00;;;;;;6282235;28;20328;-56
2022/01/20 06:30:09;;;;;;;6.53;4.10;;;2.60;1.00;;;;;;6283766;28;20552;-57
2022/01/20 06:33:12;;;;;;;7.03;4.30;;;2.30;1.00;;;;;;6281519;28;20240;-56
2022/01/20 06:36:14;;;;;;;9.67;4.73;;;2.40;1.00;;;;;;6290875;28;20365;-57
2022/01/20 06:39:17;;;;;;;4.67;4.03;;;2.20;1.00;;;;;;6277068;28;20353;-57
2022/01/20 06:42:24;;;;;;;4.00;3.80;;;2.30;1.00;;;;;;6283830;28;20420;-57
2022/01/20 06:45:27;;;;;;;4.20;3.90;;;2.40;1.00;;;;;;6283612;28;20295;-58
2022/01/20 06:48:30;;;;;;;5.13;3.40;;;2.20;1.00;;;;;;6269800;28;21053;-56
2022/01/20 06:51:33;;;;;;;7.60;4.43;;;2.00;1.00;;;;;;6273040;28;20272;-54
2022/01/20 06:54:36;;;;;;;6.63;3.97;;;1.90;1.00;;;;;;6279687;28;20367;-57
2022/01/20 06:57:49;;;;;;;4.50;3.80;;;2.20;1.00;;;;;;6276679;28;20435;-56
2022/01/20 07:00:52;;;;;;;6.37;3.90;;;1.80;1.00;;;;;;6280362;28;20274;-57
2022/01/20 07:04:00;;;;;;;3.70;3.60;;;2.00;1.00;;;;;;6282163;28;20308;-57
2022/01/20 07:07:04;;;;;;;5.93;4.07;;;1.80;1.00;;;;;;6280853;28;20229;-57
2022/01/20 07:10:08;;;;;;;5.47;4.00;;;1.80;1.00;;;;;;6282264;28;20274;-56
2022/01/20 07:13:12;;;;;;;6.17;4.17;;;1.80;1.00;;;;;;6284459;28;20248;-57
2022/01/20 07:16:15;;;;;;;7.90;4.20;;;1.70;1.00;;;;;;6280480;28;20716;-57
2022/01/20 07:19:18;;;;;;;5.03;3.60;;;1.90;1.00;;;;;;6294450;28;20233;-57
2022/01/20 07:22:21;;;;;;;4.37;4.00;;;2.00;1.00;;;;;;6288908;28;20252;-57
2022/01/20 07:25:24;;;;;;;5.93;4.30;;;1.80;1.00;;;;;;6292940;28;20390;-58
2022/01/20 07:28:28;;;;;;;6.13;4.53;;;1.60;1.00;;;;;;6279251;28;20553;-56
2022/01/20 07:31:31;;;;;;;5.17;3.93;;;1.70;1.00;;;;;;6287458;28;20267;-57
2022/01/20 07:34:34;;;;;;;4.23;3.97;;;1.40;1.00;;;;;;6293883;28;20230;-53
2022/01/20 07:37:38;;;;;;;3.80;3.60;;;1.50;1.00;;;;;;6288221;28;20253;-56
2022/01/20 07:40:41;;;;;;;6.33;4.03;;;1.20;1.00;;;;;;6283823;28;20375;-55
2022/01/20 07:43:45;;;;;;;8.47;4.70;;;1.10;1.00;;;;;;6294198;28;20260;-56
2022/01/20 07:46:49;;;;;;;8.57;4.83;;;1.40;1.00;;;;;;6286991;28;20431;-56
2022/01/20 07:49:53;;;;;;;8.53;4.57;;;1.10;1.00;;;;;;6284557;28;20618;-57
2022/01/20 07:52:55;;;;;;;7.90;4.27;;;1.10;1.00;;;;;;6286395;28;20237;-56
2022/01/20 07:55:58;;;;;;;7.37;4.40;;;1.10;1.00;;;;;;6285942;28;20310;-57
2022/01/20 07:59:02;;;;;;;6.20;4.20;;;1.30;1.00;;;;;;6281622;28;20557;-57
2022/01/20 08:02:05;;;;;;;9.03;4.40;;;0.80;1.00;;;;;;6292879;28;20291;-57
2022/01/20 08:05:09;;;;;;;10.80;4.43;;;1.40;1.00;;;;;;6286430;28;20233;-57
2022/01/20 08:08:11;;;;;;;5.40;4.90;;;1.60;1.00;;;;;;6285882;28;20263;-57
2022/01/20 08:11:15;;;;;;;8.50;4.47;;;1.50;1.00;;;;;;6288615;28;20324;-56
2022/01/20 08:14:19;;;;;;;11.00;4.40;;;1.70;1.00;;;;;;6284622;28;20252;-57
2022/01/20 08:17:22;;;;;;;9.27;4.80;;;1.60;1.00;;;;;;6285518;28;20237;-57
2022/01/20 08:20:25;;;;;;;5.13;4.23;;;1.70;1.00;;;;;;6285514;28;20274;-56
2022/01/20 08:23:29;;;;;;;7.53;4.63;;;1.80;1.00;;;;;;6286430;28;20694;-56
2022/01/20 08:26:32;;;;;;;7.33;4.47;;;1.80;1.00;;;;;;6287236;28;20330;-56
2022/01/20 08:29:36;;;;;;;8.20;4.43;;;2.20;1.00;;;;;;6283031;28;20709;-57
2022/01/20 08:32:39;;;;;;;13.17;4.77;;;2.00;1.00;;;;;;6285424;28;20233;-57
2022/01/20 08:35:42;;;;;;;13.87;4.40;;;2.00;1.00;;;;;;6288260;28;20233;-57
2022/01/20 08:38:45;;;;;;;8.37;4.40;;;2.00;1.00;;;;;;6278536;28;20750;-57
2022/01/20 08:41:48;;;;;;;6.80;4.60;;;2.00;1.00;;;;;;6288245;28;20411;-56
2022/01/20 08:44:52;;;;;;;13.17;5.20;;;1.90;1.00;;;;;;6278369;28;20274;-57
2022/01/20 08:47:56;;;;;;;10.73;4.70;;;1.90;1.00;;;;;;6278891;28;20534;-56
2022/01/20 08:50:59;;;;;;;4.60;4.17;;;2.10;1.00;;;;;;6289130;28;20291;-55
2022/01/20 08:54:02;;;;;;;12.33;4.80;;;2.10;1.00;;;;;;6283535;28;20261;-55
2022/01/20 08:57:05;;;;;;;11.67;4.27;;;2.20;1.00;;;;;;6284101;28;20889;-58
2022/01/20 09:00:11;;;;;;;10.57;4.70;;;2.20;1.00;;;;;;6283641;28;20686;-57
2022/01/20 09:03:14;;;;;;;12.83;5.07;;;2.40;1.00;;;;;;6282855;28;20448;-56
2022/01/20 09:06:17;;;;;;;6.07;4.27;;;2.50;1.00;;;;;;6284791;28;20528;-57
2022/01/20 09:09:20;;;;;;;11.03;4.50;;;2.70;1.00;;;;;;6290057;28;20324;-57
2022/01/20 09:15:45;;;;;;;7.70;4.30;;;2.70;1.00;;;;;;6271396;28;20312;-54
2022/01/20 09:18:48;;;;;;;8.73;4.70;;;2.80;1.00;;;;;;6283461;28;20328;-57
2022/01/20 09:21:51;;;;;;;10.70;4.50;;;2.90;1.00;;;;;;6283400;28;20252;-56
2022/01/20 09:24:54;;;;;;;10.67;5.40;;;2.80;1.00;;;;;;6284360;28;20320;-56
2022/01/20 09:27:56;;;;;;;7.80;4.70;;;2.90;1.00;;;;;;6282685;28;20389;-56
2022/01/20 09:31:02;;;;;;;12.80;5.50;;;2.70;1.00;;;;;;6281369;28;20738;-58
2022/01/20 09:34:06;;;;;;;6.30;4.77;;;2.60;1.00;;;;;;6282790;28;20287;-56
2022/01/20 09:37:09;;;;;;;12.00;5.10;;;2.70;1.00;;;;;;6289840;28;20263;-55
2022/01/20 09:40:12;;;;;;;6.93;5.07;;;2.90;1.00;;;;;;6286249;28;20244;-56
2022/01/20 09:43:16;;;;;;;11.77;5.37;;;2.70;1.00;;;;;;6282592;28;20237;-56
2022/01/20 09:46:20;;;;;;;9.10;4.97;;;2.60;1.00;;;;;;6282454;28;20237;-56
2022/01/20 09:49:22;;;;;;;12.77;5.07;;;2.60;1.00;;;;;;6285905;28;20263;-56
2022/01/20 09:52:27;;;;;;;14.50;5.00;;;2.60;1.00;;;;;;6277597;28;20241;-57
2022/01/20 09:55:32;;;;;;;14.97;5.37;;;2.70;1.00;;;;;;6283737;28;20239;-56
2022/01/20 09:58:35;;;;;;;11.13;4.93;;;2.20;1.00;;;;;;6288244;28;20233;-59
2022/01/20 10:01:41;;;;;;;9.77;5.00;;;2.70;1.00;;;;;;6279699;28;20378;-57
2022/01/20 10:04:45;;;;;;;10.17;4.93;;;2.90;1.00;;;;;;6283742;28;20786;-57
2022/01/20 10:07:48;;;;;;;10.43;4.93;;;2.70;1.00;;;;;;6281608;28;20225;-57
2022/01/20 10:10:54;;;;;;;10.87;5.07;;;2.70;1.00;;;;;;6285885;28;20520;-57
2022/01/20 10:13:59;;;;;;;13.53;5.33;;;3.00;1.00;;;;;;6282950;28;20253;-56
2022/01/20 10:17:14;;;;;;;13.20;5.20;;;2.70;1.00;;;;;;6282053;28;20233;-56
2022/01/20 10:20:17;;;;;;;15.13;5.53;;;2.80;1.00;;;;;;6282446;28;20721;-57
2022/01/20 10:23:35;;;;;;;14.40;5.77;;;3.00;1.00;;;;;;6277698;28;20264;-56
2022/01/20 10:26:38;;;;;;;10.17;5.50;;;3.00;1.00;;;;;;6285670;28;20237;-56
2022/01/20 10:29:41;;;;;;;12.57;5.57;;;3.10;1.00;;;;;;6284813;28;20466;-56
2022/01/20 10:32:58;;;;;;;9.83;4.73;;;3.10;1.00;;;;;;6284369;28;20251;-56
2022/01/20 10:36:07;;;;;;;14.67;5.23;;;3.10;1.00;;;;;;6285675;28;20249;-55
2022/01/20 10:39:10;;;;;;;12.67;5.23;;;3.20;1.00;;;;;;6275001;28;20320;-57
2022/01/20 10:42:15;;;;;;;10.50;5.37;;;3.10;1.00;;;;;;6290863;28;20563;-57
2022/01/20 10:45:21;;;;;;;13.63;5.70;;;3.10;1.00;;;;;;6274516;28;20322;-56
2022/01/20 10:48:25;;;;;;;9.23;4.97;;;3.10;1.00;;;;;;6288955;28;20256;-56
2022/01/20 10:51:28;;;;;;;14.30;5.17;;;3.50;1.00;;;;;;6285963;28;20449;-58
2022/01/20 10:54:42;;;;;;;16.13;5.53;;;3.20;1.00;;;;;;6292026;28;20307;-56
2022/01/20 10:57:45;;;;;;;11.53;5.43;;;3.20;1.00;;;;;;6292286;28;20359;-58
2022/01/20 11:00:50;;;;;;;15.97;5.57;;;3.30;1.00;;;;;;6288346;28;20314;-58
2022/01/20 11:03:55;;;;;;;12.40;5.47;;;3.30;1.00;;;;;;6277519;28;20259;-56
2022/01/20 11:07:02;;;;;;;17.80;5.80;;;3.20;1.00;;;;;;6278213;28;20229;-56
2022/01/20 11:10:07;;;;;;;8.23;5.67;;;3.20;1.00;;;;;;6286215;28;20769;-55
2022/01/20 11:13:11;;;;;;;10.93;5.43;;;3.10;1.00;;;;;;6282299;28;20322;-60
2022/01/20 11:16:13;;;;;;;13.13;4.73;;;3.30;1.00;;;;;;6279492;28;20328;-56
2022/01/20 11:19:20;;;;;;;6.63;4.70;;;2.70;1.00;;;;;;6277570;28;20525;-58
2022/01/20 11:22:22;;;;;;;18.93;5.27;;;3.50;1.00;;;;;;6282871;28;20309;-57
2022/01/20 11:25:27;;;;;;;12.27;5.60;;;3.80;1.00;;;;;;6278196;28;20229;-57
2022/01/20 11:28:30;;;;;;;17.27;5.80;;;3.80;1.00;;;;;;6275142;28;20732;-59
2022/01/20 11:31:34;;;;;;;17.60;5.13;;;3.70;1.00;;;;;;6279578;28;20732;-56
2022/01/20 11:34:55;;;;;;;11.67;5.70;;;3.80;1.00;;;;;;6278155;28;20241;-56
2022/01/20 11:38:00;;;;;;;11.50;5.90;;;4.00;1.00;;;;;;6295615;28;20252;-56
2022/01/20 11:41:03;;;;;;;11.93;5.63;;;4.10;1.00;;;;;;6290215;28;20241;-60
2022/01/20 11:44:12;;;;;;;8.53;4.63;;;3.90;1.00;;;;;;6282019;28;20237;-58
2022/01/20 11:47:15;;;;;;;10.17;5.53;;;4.10;1.00;;;;;;6282969;28;20619;-57
2022/01/20 11:50:20;;;;;;;10.87;4.53;;;3.90;1.00;;;;;;6286175;28;20240;-56
2022/01/20 11:53:23;;;;;;;8.13;4.50;;;4.20;1.00;;;;;;6276817;28;20845;-57
2022/01/20 11:56:31;;;;;;;10.17;4.77;;;4.10;1.00;;;;;;6288994;28;20268;-56
2022/01/20 11:59:40;;;;;;;11.23;4.70;;;4.30;1.00;;;;;;6281777;28;20528;-56
2022/01/20 12:02:43;;;;;;;11.27;5.17;;;4.10;1.00;;;;;;6278743;28;20603;-56
2022/01/20 12:05:57;;;;;;;8.10;4.87;;;4.40;1.00;;;;;;6290865;28;20260;-56
2022/01/20 12:09:02;;;;;;;10.60;5.07;;;4.30;1.00;;;;;;6283162;28;20263;-57
2022/01/20 12:12:18;;;;;;;11.17;4.77;;;4.30;1.00;;;;;;6287619;28;20229;-61
2022/01/20 12:15:22;;;;;;;9.03;4.97;;;4.50;1.00;;;;;;6289744;28;20310;-56
2022/01/20 12:18:26;;;;;;;14.93;5.50;;;4.30;1.00;;;;;;6286703;28;20328;-56
2022/01/20 12:21:31;;;;;;;11.10;4.80;;;4.40;1.00;;;;;;6286752;28;20241;-59
2022/01/20 12:24:36;;;;;;;10.80;5.07;;;4.30;1.00;;;;;;6288000;28;20233;-57
2022/01/20 12:27:41;;;;;;;12.93;5.20;;;4.20;1.00;;;;;;6285450;28;20220;-56
2022/01/20 12:30:48;;;;;;;10.80;5.00;;;4.40;1.00;;;;;;6284515;28;20379;-57
2022/01/20 12:33:54;;;;;;;15.43;5.23;;;4.10;1.00;;;;;;6290397;28;20347;-57
2022/01/20 12:36:59;;;;;;;10.77;4.73;;;4.20;1.00;;;;;;6285945;28;20775;-58
2022/01/20 12:40:02;;;;;;;10.57;4.50;;;4.50;1.00;;;;;;6283950;28;20322;-57
2022/01/20 12:43:05;;;;;;;9.97;4.77;;;4.60;1.00;;;;;;6288674;28;20324;-57
2022/01/20 12:46:09;;;;;;;8.90;4.80;;;4.30;1.00;;;;;;6286250;28;20233;-57
2022/01/20 12:49:14;;;;;;;6.87;4.97;;;4.40;1.00;;;;;;6280097;28;20236;-57
2022/01/20 12:52:18;;;;;;;10.67;4.60;;;4.00;1.00;;;;;;6284235;28;20233;-57
2022/01/20 12:55:21;;;;;;;12.30;5.37;;;4.30;1.00;;;;;;6290930;28;20260;-57
2022/01/20 12:58:23;;;;;;;12.30;4.90;;;4.20;1.00;;;;;;6291759;28;20548;-58
2022/01/20 13:01:37;;;;;;;8.77;4.77;;;4.10;1.00;;;;;;6285317;28;20399;-57
2022/01/20 13:04:41;;;;;;;13.83;4.57;;;4.30;1.00;;;;;;6284161;28;20243;-57
2022/01/20 13:07:52;;;;;;;4.63;3.90;;;4.20;1.00;;;;;;6284657;28;20257;-58
2022/01/20 13:11:04;;;;;;;8.03;4.30;;;3.90;1.00;;;;;;6285253;28;20236;-59
2022/01/20 13:14:06;;;;;;;12.20;5.20;;;4.00;1.00;;;;;;6282269;28;20284;-60
2022/01/20 13:17:19;;;;;;;9.10;5.23;;;4.30;1.00;;;;;;6277306;28;20368;-56
2022/01/20 13:20:24;;;;;;;6.80;4.20;;;3.70;1.00;;;;;;6287871;28;20233;-58
2022/01/20 13:26:54;;;;;;;7.67;5.13;;;4.30;1.00;;;;;;6282873;28;20225;-57
2022/01/20 13:29:57;;;;;;;10.80;5.30;;;4.00;1.00;;;;;;6286884;28;20272;-58
2022/01/20 13:32:59;;;;;;;7.67;5.30;;;4.30;1.00;;;;;;6281912;28;20356;-56
2022/01/20 13:36:03;;;;;;;7.03;4.67;;;4.30;1.00;;;;;;6285460;28;20325;-60
2022/01/20 13:39:07;;;;;;;6.67;4.60;;;4.20;1.00;;;;;;6289244;28;20256;-58
2022/01/20 13:42:23;;;;;;;6.63;4.60;;;4.00;1.00;;;;;;6289835;28;20723;-57
2022/01/20 13:45:25;;;;;;;4.77;4.37;;;3.80;1.00;;;;;;6295346;28;20661;-57
2022/01/20 13:48:29;;;;;;;8.50;4.70;;;3.70;1.00;;;;;;6288116;28;20505;-57
2022/01/20 13:51:32;;;;;;;16.00;5.40;;;3.60;1.00;;;;;;6284136;28;20428;-57
2022/01/20 13:54:44;;;;;;;9.60;4.40;;;3.80;1.00;;;;;;6279207;28;20228;-57
2022/01/20 13:58:08;;;;;;;11.63;4.80;;;3.40;1.00;;;;;;6281693;28;20674;-57
2022/01/20 14:01:12;;;;;;;11.77;4.83;;;3.60;1.00;;;;;;6282369;28;20237;-59
2022/01/20 14:04:17;;;;;;;14.17;4.83;;;3.30;1.00;;;;;;6284999;28;20286;-57
2022/01/20 14:07:21;;;;;;;9.07;4.53;;;3.30;1.00;;;;;;6284867;28;20918;-57
2022/01/20 14:10:25;;;;;;;9.37;5.27;;;3.60;1.00;;;;;;6283795;28;20721;-56
2022/01/20 14:13:28;;;;;;;7.17;4.53;;;3.30;1.00;;;;;;6283952;28;20391;-57
2022/01/20 14:16:33;;;;;;;6.87;4.40;;;3.30;1.00;;;;;;6281378;28;20271;-57
2022/01/20 14:19:42;;;;;;;8.47;4.67;;;3.00;1.00;;;;;;6284468;28;20245;-57
2022/01/20 14:22:44;;;;;;;7.77;4.67;;;3.10;1.00;;;;;;6288554;28;20290;-57
2022/01/20 14:25:48;;;;;;;9.60;4.37;;;3.20;1.00;;;;;;6287923;28;20323;-56
2022/01/20 14:28:51;;;;;;;4.87;4.40;;;2.90;1.00;;;;;;6291175;28;20804;-56
2022/01/20 14:31:54;;;;;;;6.93;4.60;;;3.20;1.00;;;;;;6293132;28;20318;-59
2022/01/20 14:34:56;;;;;;;8.70;4.90;;;3.30;1.00;;;;;;6280888;28;20240;-55
2022/01/20 14:37:59;;;;;;;5.43;4.27;;;3.20;1.00;;;;;;6280598;28;20260;-56
2022/01/20 14:41:03;;;;;;;3.60;3.40;;;3.20;1.00;;;;;;6285806;28;20357;-57
2022/01/20 14:44:06;;;;;;;4.53;4.13;;;2.80;1.00;;;;;;6279201;28;20321;-58
2022/01/20 14:47:09;;;;;;;7.87;3.67;;;2.70;1.00;;;;;;6288017;28;20240;-57
2022/01/20 14:50:12;;;;;;;7.33;4.30;;;2.80;1.00;;;;;;6292337;28;20300;-57
2022/01/20 14:53:15;;;;;;;4.50;4.03;;;2.60;1.00;;;;;;6283669;28;20320;-56
2022/01/20 14:56:19;;;;;;;10.53;4.43;;;2.70;1.00;;;;;;6291453;28;20343;-57
2022/01/20 14:59:22;;;;;;;7.30;4.27;;;2.20;1.00;;;;;;6284200;28;20343;-58
2022/01/20 15:02:25;;;;;;;7.13;4.20;;;2.30;1.00;;;;;;6285812;28;20617;-56
2022/01/20 15:05:29;;;;;;;11.10;4.40;;;2.20;1.00;;;;;;6290570;28;20610;-56
2022/01/20 15:08:33;;;;;;;5.93;4.20;;;2.40;1.00;;;;;;6288576;28;20298;-57
2022/01/20 15:11:37;;;;;;;8.13;4.67;;;2.40;1.00;;;;;;6287616;28;20713;-57
2022/01/20 15:14:40;;;;;;;6.37;4.53;;;2.20;1.00;;;;;;6285608;28;20320;-57
2022/01/20 15:17:44;;;;;;;7.23;4.73;;;2.00;1.00;;;;;;6277614;28;20229;-57
2022/01/20 15:20:47;;;;;;;7.10;4.60;;;2.30;1.00;;;;;;6279742;28;20221;-57
2022/01/20 15:23:50;;;;;;;4.67;4.20;;;2.20;1.00;;;;;;6279173;28;20222;-56
2022/01/20 15:26:54;;;;;;;10.90;4.77;;;2.20;1.00;;;;;;6285026;28;20241;-56
2022/01/20 15:29:57;;;;;;;5.07;4.30;;;2.20;1.00;;;;;;6287210;28;20248;-56
2022/01/20 15:33:15;;;;;;;9.20;4.63;;;2.00;1.00;;;;;;6282672;28;20734;-56
2022/01/20 15:36:18;;;;;;;7.20;4.77;;;1.80;1.00;;;;;;6279687;28;20316;-57
2022/01/20 15:39:21;;;;;;;10.40;5.00;;;2.00;1.00;;;;;;6286955;28;20803;-56
2022/01/20 15:42:25;;;;;;;6.77;4.90;;;2.00;1.00;;;;;;6288085;28;20324;-57
2022/01/20 15:45:28;;;;;;;7.20;4.90;;;1.80;1.00;;;;;;6287023;28;20443;-57
2022/01/20 15:48:31;;;;;;;10.67;4.90;;;2.00;1.00;;;;;;6284746;28;20946;-56
2022/01/20 15:51:34;;;;;;;8.10;5.13;;;2.20;1.00;;;;;;6286825;28;20225;-58
2022/01/20 15:54:37;;;;;;;5.03;4.73;;;2.00;1.00;;;;;;6291133;28;20271;-57
2022/01/20 15:57:41;;;;;;;16.20;5.17;;;2.10;1.00;;;;;;6292872;28;20740;-57
2022/01/20 16:00:44;;;;;;;4.53;4.10;;;2.10;1.00;;;;;;6287950;28;20282;-59
2022/01/20 16:03:47;;;;;;;7.50;4.27;;;2.00;1.00;;;;;;6291351;28;20228;-57
2022/01/20 16:06:50;;;;;;;4.83;4.30;;;2.20;1.00;;;;;;6288147;28;20660;-57
2022/01/20 16:09:53;;;;;;;4.83;4.10;;;2.10;1.00;;;;;;6285935;28;20411;-56
2022/01/20 16:12:57;;;;;;;7.97;4.03;;;2.00;1.00;;;;;;6285283;28;20655;-58
2022/01/20 16:16:01;;;;;;;4.33;3.87;;;2.00;1.00;;;;;;6285447;28;20290;-56
2022/01/20 16:19:07;;;;;;;3.90;3.60;;;1.60;1.00;;;;;;6285180;28;20293;-58
2022/01/20 16:22:10;;;;;;;6.10;4.03;;;1.50;1.00;;;;;;6273144;28;20242;-56
2022/01/20 16:25:16;;;;;;;5.63;4.03;;;1.50;6.30;;;;;;6290292;28;20601;-56
2022/01/20 16:28:20;;;;;;;5.60;3.70;;;1.20;19.60;;;;;;6291352;28;20311;-58
2022/01/20 16:31:22;;;;;;;4.43;4.10;;;1.20;23.80;;;;;;6285338;28;20290;-57
2022/01/20 16:34:26;;;;;;;4.30;3.90;;;1.40;24.90;;;;;;6283717;28;20407;-58
2022/01/20 16:37:29;;;;;;;8.07;4.03;;;1.20;23.80;;;;;;6283909;28;20267;-57
2022/01/20 16:40:32;;;;;;;4.83;3.80;;;1.00;22.40;;;;;;6288400;28;20842;-56
2022/01/20 16:43:37;;;;;;;6.03;4.03;;;1.00;20.50;;;;;;6282770;28;20459;-56
2022/01/20 16:46:40;;;;;;;9.67;4.33;;;1.20;20.60;;;;;;6292539;28;20644;-58
2022/01/20 16:49:42;;;;;;;4.30;3.80;;;0.90;18.10;;;;;;6284829;28;20313;-56
2022/01/20 16:52:46;;;;;;;7.33;4.23;;;1.10;15.70;;;;;;6292221;28;20232;-58
2022/01/20 16:55:49;;;;;;;4.27;3.90;;;0.90;14.80;;;;;;6297521;28;20279;-56
2022/01/20 16:58:53;;;;;;;6.67;4.37;;;1.00;14.50;;;;;;6283881;28;20256;-58
2022/01/20 17:01:57;;;;;;;5.33;4.53;;;0.90;14.90;;;;;;6291870;28;20842;-60